sensor_id;sensor_type;location;lat;lon;timestamp;pressure;altitude;pressure_sealevel;temperature
12409;BMP180;6268;48.188;17.134;2023-03-08T00:00:13;49644.88;;;-134.68
12409;BMP180;6268;48.188;17.134;2023-03-08T00:02:43;49646.84;;;-134.68
12409;BMP180;6268;48.188;17.134;2023-03-08T00:05:12;49644.88;;;-134.68
12409;BMP180;6268;48.188;17.134;2023-03-08T00:07:41;49642.94;;;-134.68
12409;BMP180;6268;48.188;17.134;2023-03-08T00:10:12;49646.84;;;-134.68
12409;BMP180;6268;48.188;17.134;2023-03-08T00:12:41;49644.88;;;-134.68
12409;BMP180;6268;48.188;17.134;2023-03-08T00:15:10;49644.88;;;-134.68
12409;BMP180;6268;48.188;17.134;2023-03-08T00:17:39;49646.84;;;-134.68
12409;BMP180;6268;48.188;17.134;2023-03-08T00:20:10;49646.84;;;-134.68
12409;BMP180;6268;48.188;17.134;2023-03-08T00:22:41;49644.88;;;-134.68
12409;BMP180;6268;48.188;17.134;2023-03-08T00:25:12;49644.88;;;-134.68
12409;BMP180;6268;48.188;17.134;2023-03-08T00:27:42;49650.72;;;-134.68
12409;BMP180;6268;48.188;17.134;2023-03-08T00:30:13;49646.84;;;-134.68
12409;BMP180;6268;48.188;17.134;2023-03-08T00:32:43;49646.84;;;-134.68
12409;BMP180;6268;48.188;17.134;2023-03-08T00:35:12;49644.88;;;-134.68
12409;BMP180;6268;48.188;17.134;2023-03-08T00:37:40;49646.84;;;-134.68
12409;BMP180;6268;48.188;17.134;2023-03-08T00:40:12;49644.88;;;-134.68
12409;BMP180;6268;48.188;17.134;2023-03-08T00:42:41;49646.84;;;-134.68
12409;BMP180;6268;48.188;17.134;2023-03-08T00:45:11;49646.84;;;-134.68
12409;BMP180;6268;48.188;17.134;2023-03-08T00:47:40;49646.84;;;-134.68
12409;BMP180;6268;48.188;17.134;2023-03-08T00:50:10;49646.84;;;-134.68
12409;BMP180;6268;48.188;17.134;2023-03-08T00:52:39;49644.88;;;-134.68
12409;BMP180;6268;48.188;17.134;2023-03-08T00:55:09;49648.78;;;-134.68
12409;BMP180;6268;48.188;17.134;2023-03-08T00:57:39;49644.88;;;-134.68
12409;BMP180;6268;48.188;17.134;2023-03-08T01:00:10;49644.88;;;-134.68
12409;BMP180;6268;48.188;17.134;2023-03-08T01:02:39;49646.84;;;-134.68
12409;BMP180;6268;48.188;17.134;2023-03-08T01:05:09;49646.84;;;-134.68
12409;BMP180;6268;48.188;17.134;2023-03-08T01:07:38;49646.84;;;-134.68
12409;BMP180;6268;48.188;17.134;2023-03-08T01:10:08;49646.84;;;-134.68
12409;BMP180;6268;48.188;17.134;2023-03-08T01:12:39;49644.88;;;-134.68
12409;BMP180;6268;48.188;17.134;2023-03-08T01:15:09;49650.72;;;-134.68
12409;BMP180;6268;48.188;17.134;2023-03-08T01:17:38;49646.84;;;-134.68
12409;BMP180;6268;48.188;17.134;2023-03-08T01:20:09;49644.88;;;-134.68
12409;BMP180;6268;48.188;17.134;2023-03-08T01:22:38;49646.84;;;-134.68
12409;BMP180;6268;48.188;17.134;2023-03-08T01:25:08;49646.84;;;-134.68
12409;BMP180;6268;48.188;17.134;2023-03-08T01:27:38;49642.94;;;-134.68
12409;BMP180;6268;48.188;17.134;2023-03-08T01:30:09;49644.88;;;-134.68
12409;BMP180;6268;48.188;17.134;2023-03-08T01:32:38;49648.78;;;-134.68
12409;BMP180;6268;48.188;17.134;2023-03-08T01:35:08;49646.84;;;-134.68
12409;BMP180;6268;48.188;17.134;2023-03-08T01:37:38;49648.78;;;-134.68
12409;BMP180;6268;48.188;17.134;2023-03-08T01:40:08;49646.84;;;-134.68
12409;BMP180;6268;48.188;17.134;2023-03-08T01:42:39;49646.84;;;-134.68
12409;BMP180;6268;48.188;17.134;2023-03-08T01:48:34;49644.88;;;-134.68
12409;BMP180;6268;48.188;17.134;2023-03-08T01:51:06;49644.88;;;-134.68
12409;BMP180;6268;48.188;17.134;2023-03-08T01:53:39;49642.94;;;-134.68
12409;BMP180;6268;48.188;17.134;2023-03-08T01:56:41;49644.88;;;-134.68
12409;BMP180;6268;48.188;17.134;2023-03-08T01:59:13;49644.88;;;-134.68
12409;BMP180;6268;48.188;17.134;2023-03-08T02:01:43;49644.88;;;-134.68
12409;BMP180;6268;48.188;17.134;2023-03-08T02:04:12;49646.84;;;-134.68
12409;BMP180;6268;48.188;17.134;2023-03-08T02:06:42;49644.88;;;-134.68
12409;BMP180;6268;48.188;17.134;2023-03-08T02:09:12;49644.88;;;-134.68
12409;BMP180;6268;48.188;17.134;2023-03-08T02:11:42;49646.84;;;-134.68
12409;BMP180;6268;48.188;17.134;2023-03-08T02:14:13;49646.84;;;-134.68
12409;BMP180;6268;48.188;17.134;2023-03-08T02:16:41;49646.84;;;-134.68
12409;BMP180;6268;48.188;17.134;2023-03-08T02:19:20;49646.84;;;-134.68
12409;BMP180;6268;48.188;17.134;2023-03-08T02:21:50;49646.84;;;-134.68
12409;BMP180;6268;48.188;17.134;2023-03-08T02:24:23;49644.88;;;-134.68
12409;BMP180;6268;48.188;17.134;2023-03-08T02:27:03;49642.94;;;-134.68
12409;BMP180;6268;48.188;17.134;2023-03-08T02:29:34;49644.88;;;-134.68
12409;BMP180;6268;48.188;17.134;2023-03-08T02:32:04;49646.84;;;-134.68
12409;BMP180;6268;48.188;17.134;2023-03-08T02:34:33;49646.84;;;-134.68
12409;BMP180;6268;48.188;17.134;2023-03-08T02:37:02;49646.84;;;-134.68
12409;BMP180;6268;48.188;17.134;2023-03-08T02:39:32;49648.78;;;-134.68
12409;BMP180;6268;48.188;17.134;2023-03-08T02:42:01;49644.88;;;-134.68
12409;BMP180;6268;48.188;17.134;2023-03-08T02:44:30;49644.88;;;-134.68
12409;BMP180;6268;48.188;17.134;2023-03-08T02:46:59;49642.94;;;-134.68
12409;BMP180;6268;48.188;17.134;2023-03-08T02:49:28;49642.94;;;-134.68
12409;BMP180;6268;48.188;17.134;2023-03-08T02:51:57;49644.88;;;-134.68
12409;BMP180;6268;48.188;17.134;2023-03-08T02:54:26;49646.84;;;-134.68
12409;BMP180;6268;48.188;17.134;2023-03-08T02:56:57;49646.84;;;-134.68
12409;BMP180;6268;48.188;17.134;2023-03-08T02:59:26;49646.84;;;-134.68
12409;BMP180;6268;48.188;17.134;2023-03-08T03:01:55;49642.94;;;-134.68
12409;BMP180;6268;48.188;17.134;2023-03-08T03:04:28;49646.84;;;-134.68
12409;BMP180;6268;48.188;17.134;2023-03-08T03:06:58;49642.94;;;-134.68
12409;BMP180;6268;48.188;17.134;2023-03-08T03:09:30;49646.84;;;-134.68
12409;BMP180;6268;48.188;17.134;2023-03-08T03:12:01;49646.84;;;-134.68
12409;BMP180;6268;48.188;17.134;2023-03-08T03:14:32;49646.84;;;-134.68
12409;BMP180;6268;48.188;17.134;2023-03-08T03:17:01;49646.84;;;-134.68
12409;BMP180;6268;48.188;17.134;2023-03-08T03:19:29;49646.84;;;-134.68
12409;BMP180;6268;48.188;17.134;2023-03-08T03:21:58;49646.84;;;-134.68
12409;BMP180;6268;48.188;17.134;2023-03-08T03:24:27;49644.88;;;-134.68
12409;BMP180;6268;48.188;17.134;2023-03-08T03:26:56;49646.84;;;-134.68
12409;BMP180;6268;48.188;17.134;2023-03-08T03:29:26;49646.84;;;-134.68
12409;BMP180;6268;48.188;17.134;2023-03-08T03:31:55;49646.84;;;-134.68
12409;BMP180;6268;48.188;17.134;2023-03-08T03:34:24;49644.88;;;-134.68
12409;BMP180;6268;48.188;17.134;2023-03-08T03:36:53;49648.78;;;-134.68
12409;BMP180;6268;48.188;17.134;2023-03-08T03:39:22;49644.88;;;-134.68
12409;BMP180;6268;48.188;17.134;2023-03-08T03:41:51;49644.88;;;-134.68
12409;BMP180;6268;48.188;17.134;2023-03-08T03:44:20;49646.84;;;-134.68
12409;BMP180;6268;48.188;17.134;2023-03-08T03:46:50;49646.84;;;-134.68
12409;BMP180;6268;48.188;17.134;2023-03-08T03:49:19;49644.88;;;-134.68
12409;BMP180;6268;48.188;17.134;2023-03-08T03:51:48;49644.88;;;-134.68
12409;BMP180;6268;48.188;17.134;2023-03-08T03:54:17;49646.84;;;-134.68
12409;BMP180;6268;48.188;17.134;2023-03-08T03:56:46;49646.84;;;-134.68
12409;BMP180;6268;48.188;17.134;2023-03-08T03:59:15;49644.88;;;-134.68
12409;BMP180;6268;48.188;17.134;2023-03-08T04:01:44;49644.88;;;-134.68
12409;BMP180;6268;48.188;17.134;2023-03-08T04:04:15;49646.84;;;-134.68
12409;BMP180;6268;48.188;17.134;2023-03-08T04:06:44;49644.88;;;-134.68
12409;BMP180;6268;48.188;17.134;2023-03-08T04:09:15;49646.84;;;-134.68
12409;BMP180;6268;48.188;17.134;2023-03-08T04:11:45;49642.94;;;-134.68
12409;BMP180;6268;48.188;17.134;2023-03-08T04:14:14;49648.78;;;-134.68
12409;BMP180;6268;48.188;17.134;2023-03-08T04:16:43;49646.84;;;-134.68
12409;BMP180;6268;48.188;17.134;2023-03-08T04:19:14;49644.88;;;-134.68
12409;BMP180;6268;48.188;17.134;2023-03-08T04:21:43;49648.78;;;-134.68
12409;BMP180;6268;48.188;17.134;2023-03-08T04:24:20;49641.00;;;-134.68
12409;BMP180;6268;48.188;17.134;2023-03-08T04:26:51;49644.88;;;-134.68
12409;BMP180;6268;48.188;17.134;2023-03-08T04:29:23;49644.88;;;-134.68
12409;BMP180;6268;48.188;17.134;2023-03-08T04:31:53;49646.84;;;-134.68
12409;BMP180;6268;48.188;17.134;2023-03-08T04:34:32;49646.84;;;-134.68
12409;BMP180;6268;48.188;17.134;2023-03-08T04:37:01;49646.84;;;-134.68
12409;BMP180;6268;48.188;17.134;2023-03-08T04:39:30;49646.84;;;-134.68
12409;BMP180;6268;48.188;17.134;2023-03-08T04:42:02;49648.78;;;-134.68
12409;BMP180;6268;48.188;17.134;2023-03-08T04:44:32;49646.84;;;-134.68
12409;BMP180;6268;48.188;17.134;2023-03-08T04:47:00;49646.84;;;-134.68
12409;BMP180;6268;48.188;17.134;2023-03-08T04:49:31;49648.78;;;-134.68
12409;BMP180;6268;48.188;17.134;2023-03-08T04:52:00;49646.84;;;-134.68
12409;BMP180;6268;48.188;17.134;2023-03-08T04:54:29;49644.88;;;-134.68
12409;BMP180;6268;48.188;17.134;2023-03-08T04:56:57;49644.88;;;-134.68
12409;BMP180;6268;48.188;17.134;2023-03-08T04:59:26;49646.84;;;-134.68
12409;BMP180;6268;48.188;17.134;2023-03-08T05:01:55;49644.88;;;-134.68
12409;BMP180;6268;48.188;17.134;2023-03-08T05:04:24;49648.78;;;-134.68
12409;BMP180;6268;48.188;17.134;2023-03-08T05:06:55;49644.88;;;-134.68
12409;BMP180;6268;48.188;17.134;2023-03-08T05:09:24;49642.94;;;-134.68
12409;BMP180;6268;48.188;17.134;2023-03-08T05:11:53;49644.88;;;-134.68
12409;BMP180;6268;48.188;17.134;2023-03-08T05:14:27;49644.88;;;-134.68
12409;BMP180;6268;48.188;17.134;2023-03-08T05:16:56;49646.84;;;-134.68
12409;BMP180;6268;48.188;17.134;2023-03-08T05:19:28;49642.94;;;-134.68
12409;BMP180;6268;48.188;17.134;2023-03-08T05:21:59;49642.94;;;-134.68
12409;BMP180;6268;48.188;17.134;2023-03-08T05:24:27;49644.88;;;-134.68
12409;BMP180;6268;48.188;17.134;2023-03-08T05:26:56;49646.84;;;-134.68
12409;BMP180;6268;48.188;17.134;2023-03-08T05:29:25;49644.88;;;-134.68
12409;BMP180;6268;48.188;17.134;2023-03-08T05:31:54;49642.94;;;-134.68
12409;BMP180;6268;48.188;17.134;2023-03-08T05:34:25;49644.88;;;-134.68
12409;BMP180;6268;48.188;17.134;2023-03-08T05:36:54;49642.94;;;-134.68
12409;BMP180;6268;48.188;17.134;2023-03-08T05:39:24;49642.94;;;-134.68
12409;BMP180;6268;48.188;17.134;2023-03-08T05:41:53;49648.78;;;-134.68
12409;BMP180;6268;48.188;17.134;2023-03-08T05:44:22;49642.94;;;-134.68
12409;BMP180;6268;48.188;17.134;2023-03-08T05:46:51;49646.84;;;-134.68
12409;BMP180;6268;48.188;17.134;2023-03-08T05:49:20;49646.84;;;-134.68
12409;BMP180;6268;48.188;17.134;2023-03-08T05:51:49;49644.88;;;-134.68
12409;BMP180;6268;48.188;17.134;2023-03-08T05:54:18;49646.84;;;-134.68
12409;BMP180;6268;48.188;17.134;2023-03-08T05:56:48;49644.88;;;-134.68
12409;BMP180;6268;48.188;17.134;2023-03-08T05:59:17;49646.84;;;-134.68
12409;BMP180;6268;48.188;17.134;2023-03-08T06:01:46;49644.88;;;-134.68
12409;BMP180;6268;48.188;17.134;2023-03-08T06:04:15;49642.94;;;-134.68
12409;BMP180;6268;48.188;17.134;2023-03-08T06:06:44;49646.84;;;-134.68
12409;BMP180;6268;48.188;17.134;2023-03-08T06:09:13;49646.84;;;-134.68
12409;BMP180;6268;48.188;17.134;2023-03-08T06:11:42;49646.84;;;-134.68
12409;BMP180;6268;48.188;17.134;2023-03-08T06:14:12;49646.84;;;-134.68
12409;BMP180;6268;48.188;17.134;2023-03-08T06:16:41;49646.84;;;-134.68
12409;BMP180;6268;48.188;17.134;2023-03-08T06:19:10;49642.94;;;-134.68
12409;BMP180;6268;48.188;17.134;2023-03-08T06:21:39;49644.88;;;-134.68
12409;BMP180;6268;48.188;17.134;2023-03-08T06:24:08;49648.78;;;-134.68
12409;BMP180;6268;48.188;17.134;2023-03-08T06:26:37;49644.88;;;-134.68
12409;BMP180;6268;48.188;17.134;2023-03-08T06:29:06;49646.84;;;-134.68
12409;BMP180;6268;48.188;17.134;2023-03-08T06:31:36;49642.94;;;-134.68
12409;BMP180;6268;48.188;17.134;2023-03-08T06:34:05;49644.88;;;-134.68
12409;BMP180;6268;48.188;17.134;2023-03-08T06:36:34;49646.84;;;-134.68
12409;BMP180;6268;48.188;17.134;2023-03-08T06:39:03;49646.84;;;-134.68
12409;BMP180;6268;48.188;17.134;2023-03-08T06:41:34;49646.84;;;-134.68
12409;BMP180;6268;48.188;17.134;2023-03-08T06:44:03;49646.84;;;-134.68
12409;BMP180;6268;48.188;17.134;2023-03-08T06:46:32;49648.78;;;-134.68
12409;BMP180;6268;48.188;17.134;2023-03-08T06:49:02;49646.84;;;-134.68
12409;BMP180;6268;48.188;17.134;2023-03-08T06:51:31;49646.84;;;-134.68
12409;BMP180;6268;48.188;17.134;2023-03-08T06:54:00;49646.84;;;-134.68
12409;BMP180;6268;48.188;17.134;2023-03-08T06:56:29;49646.84;;;-134.68
12409;BMP180;6268;48.188;17.134;2023-03-08T06:58:58;49650.72;;;-134.68
12409;BMP180;6268;48.188;17.134;2023-03-08T07:01:27;49648.78;;;-134.68
12409;BMP180;6268;48.188;17.134;2023-03-08T07:03:56;49654.59;;;-134.68
12409;BMP180;6268;48.188;17.134;2023-03-08T07:06:27;49652.66;;;-134.68
12409;BMP180;6268;48.188;17.134;2023-03-08T07:08:56;49650.72;;;-134.68
12409;BMP180;6268;48.188;17.134;2023-03-08T07:11:25;49652.66;;;-134.68
12409;BMP180;6268;48.188;17.134;2023-03-08T07:13:57;49650.72;;;-134.68
12409;BMP180;6268;48.188;17.134;2023-03-08T07:16:26;49650.72;;;-134.68
12409;BMP180;6268;48.188;17.134;2023-03-08T07:18:55;49650.72;;;-134.68
12409;BMP180;6268;48.188;17.134;2023-03-08T07:21:24;49652.66;;;-134.68
12409;BMP180;6268;48.188;17.134;2023-03-08T07:23:54;49652.66;;;-134.68
12409;BMP180;6268;48.188;17.134;2023-03-08T07:26:23;49652.66;;;-134.68
12409;BMP180;6268;48.188;17.134;2023-03-08T07:28:52;49652.66;;;-134.68
12409;BMP180;6268;48.188;17.134;2023-03-08T07:31:22;49652.66;;;-134.68
12409;BMP180;6268;48.188;17.134;2023-03-08T07:33:52;49652.66;;;-134.68
12409;BMP180;6268;48.188;17.134;2023-03-08T07:36:21;49650.72;;;-134.68
12409;BMP180;6268;48.188;17.134;2023-03-08T07:38:50;49652.66;;;-134.68
12409;BMP180;6268;48.188;17.134;2023-03-08T07:41:20;49648.78;;;-134.68
12409;BMP180;6268;48.188;17.134;2023-03-08T07:43:49;49650.72;;;-134.68
12409;BMP180;6268;48.188;17.134;2023-03-08T07:46:18;49650.72;;;-134.68
12409;BMP180;6268;48.188;17.134;2023-03-08T07:48:47;49650.72;;;-134.68
12409;BMP180;6268;48.188;17.134;2023-03-08T07:51:15;49650.72;;;-134.68
12409;BMP180;6268;48.188;17.134;2023-03-08T07:53:44;49650.72;;;-134.68
12409;BMP180;6268;48.188;17.134;2023-03-08T07:56:13;49650.72;;;-134.68
12409;BMP180;6268;48.188;17.134;2023-03-08T07:58:43;49650.72;;;-134.68
12409;BMP180;6268;48.188;17.134;2023-03-08T08:01:13;49650.72;;;-134.68
12409;BMP180;6268;48.188;17.134;2023-03-08T08:03:42;49652.66;;;-134.68
12409;BMP180;6268;48.188;17.134;2023-03-08T08:06:11;49652.66;;;-134.68
12409;BMP180;6268;48.188;17.134;2023-03-08T08:08:40;49652.66;;;-134.68
12409;BMP180;6268;48.188;17.134;2023-03-08T08:11:14;49650.72;;;-134.68
12409;BMP180;6268;48.188;17.134;2023-03-08T08:13:45;49650.72;;;-134.68
12409;BMP180;6268;48.188;17.134;2023-03-08T08:16:16;49652.66;;;-134.68
12409;BMP180;6268;48.188;17.134;2023-03-08T08:18:45;49650.72;;;-134.68
12409;BMP180;6268;48.188;17.134;2023-03-08T08:21:15;49652.66;;;-134.68
12409;BMP180;6268;48.188;17.134;2023-03-08T08:23:45;49650.72;;;-134.68
12409;BMP180;6268;48.188;17.134;2023-03-08T08:26:16;49654.59;;;-134.68
12409;BMP180;6268;48.188;17.134;2023-03-08T08:28:51;49652.66;;;-134.68
12409;BMP180;6268;48.188;17.134;2023-03-08T08:31:22;49652.66;;;-134.68
12409;BMP180;6268;48.188;17.134;2023-03-08T08:33:52;49652.66;;;-134.68
12409;BMP180;6268;48.188;17.134;2023-03-08T08:36:21;49654.59;;;-134.68
12409;BMP180;6268;48.188;17.134;2023-03-08T08:38:50;49654.59;;;-134.68
12409;BMP180;6268;48.188;17.134;2023-03-08T08:41:20;49650.72;;;-134.68
12409;BMP180;6268;48.188;17.134;2023-03-08T08:43:51;49650.72;;;-134.68
12409;BMP180;6268;48.188;17.134;2023-03-08T08:46:23;49652.66;;;-134.68
12409;BMP180;6268;48.188;17.134;2023-03-08T08:48:52;49652.66;;;-134.68
12409;BMP180;6268;48.188;17.134;2023-03-08T08:51:21;49652.66;;;-134.68
12409;BMP180;6268;48.188;17.134;2023-03-08T08:53:50;49650.72;;;-134.68
12409;BMP180;6268;48.188;17.134;2023-03-08T08:56:21;49650.72;;;-134.68
12409;BMP180;6268;48.188;17.134;2023-03-08T08:58:59;49648.78;;;-134.68
12409;BMP180;6268;48.188;17.134;2023-03-08T09:01:30;49652.66;;;-134.68
12409;BMP180;6268;48.188;17.134;2023-03-08T09:04:00;49652.66;;;-134.68
12409;BMP180;6268;48.188;17.134;2023-03-08T09:06:29;49652.66;;;-134.68
12409;BMP180;6268;48.188;17.134;2023-03-08T09:08:59;49652.66;;;-134.68
12409;BMP180;6268;48.188;17.134;2023-03-08T09:11:28;49650.72;;;-134.68
12409;BMP180;6268;48.188;17.134;2023-03-08T09:13:58;49654.59;;;-134.68
12409;BMP180;6268;48.188;17.134;2023-03-08T09:16:30;49652.66;;;-134.68
12409;BMP180;6268;48.188;17.134;2023-03-08T09:19:02;49652.66;;;-134.68
12409;BMP180;6268;48.188;17.134;2023-03-08T09:21:32;49648.78;;;-134.68
12409;BMP180;6268;48.188;17.134;2023-03-08T09:24:04;49646.84;;;-134.68
12409;BMP180;6268;48.188;17.134;2023-03-08T09:26:33;49650.72;;;-134.68
12409;BMP180;6268;48.188;17.134;2023-03-08T09:29:04;49650.72;;;-134.68
12409;BMP180;6268;48.188;17.134;2023-03-08T09:31:37;49650.72;;;-134.68
12409;BMP180;6268;48.188;17.134;2023-03-08T09:34:07;49650.72;;;-134.68
12409;BMP180;6268;48.188;17.134;2023-03-08T09:36:36;49650.72;;;-134.68
12409;BMP180;6268;48.188;17.134;2023-03-08T09:39:06;49650.72;;;-134.68
12409;BMP180;6268;48.188;17.134;2023-03-08T09:41:50;49650.72;;;-134.68
12409;BMP180;6268;48.188;17.134;2023-03-08T09:44:42;49648.78;;;-134.68
12409;BMP180;6268;48.188;17.134;2023-03-08T09:47:27;49648.78;;;-134.68
12409;BMP180;6268;48.188;17.134;2023-03-08T09:50:07;49650.72;;;-134.68
12409;BMP180;6268;48.188;17.134;2023-03-08T09:52:44;49648.78;;;-134.68
12409;BMP180;6268;48.188;17.134;2023-03-08T09:55:20;49650.72;;;-134.68
12409;BMP180;6268;48.188;17.134;2023-03-08T09:57:59;49648.78;;;-134.68
12409;BMP180;6268;48.188;17.134;2023-03-08T10:00:34;49648.78;;;-134.68
12409;BMP180;6268;48.188;17.134;2023-03-08T10:06:26;49646.84;;;-134.68
12409;BMP180;6268;48.188;17.134;2023-03-08T10:09:04;49650.72;;;-134.68
12409;BMP180;6268;48.188;17.134;2023-03-08T10:11:42;49650.72;;;-134.68
12409;BMP180;6268;48.188;17.134;2023-03-08T10:14:19;49650.72;;;-134.68
12409;BMP180;6268;48.188;17.134;2023-03-08T10:16:56;49646.84;;;-134.68
12409;BMP180;6268;48.188;17.134;2023-03-08T10:19:34;49650.72;;;-134.68
12409;BMP180;6268;48.188;17.134;2023-03-08T10:22:14;49646.84;;;-134.68
12409;BMP180;6268;48.188;17.134;2023-03-08T10:24:53;49650.72;;;-134.68
12409;BMP180;6268;48.188;17.134;2023-03-08T10:27:25;49650.72;;;-134.68
12409;BMP180;6268;48.188;17.134;2023-03-08T10:29:57;49650.72;;;-134.68
12409;BMP180;6268;48.188;17.134;2023-03-08T10:32:29;49648.78;;;-134.68
12409;BMP180;6268;48.188;17.134;2023-03-08T10:35:02;49650.72;;;-134.68
12409;BMP180;6268;48.188;17.134;2023-03-08T10:37:32;49648.78;;;-134.68
12409;BMP180;6268;48.188;17.134;2023-03-08T10:40:08;49648.78;;;-134.68
12409;BMP180;6268;48.188;17.134;2023-03-08T10:42:41;49648.78;;;-134.68
12409;BMP180;6268;48.188;17.134;2023-03-08T10:45:16;49650.72;;;-134.68
12409;BMP180;6268;48.188;17.134;2023-03-08T10:47:57;49650.72;;;-134.68
12409;BMP180;6268;48.188;17.134;2023-03-08T10:50:29;49646.84;;;-134.68
12409;BMP180;6268;48.188;17.134;2023-03-08T10:53:08;49648.78;;;-134.68
12409;BMP180;6268;48.188;17.134;2023-03-08T10:55:44;49650.72;;;-134.68
12409;BMP180;6268;48.188;17.134;2023-03-08T10:58:32;49648.78;;;-134.68
12409;BMP180;6268;48.188;17.134;2023-03-08T11:01:06;49650.72;;;-134.68
12409;BMP180;6268;48.188;17.134;2023-03-08T11:03:36;49646.84;;;-134.68
12409;BMP180;6268;48.188;17.134;2023-03-08T11:06:13;49650.72;;;-134.68
12409;BMP180;6268;48.188;17.134;2023-03-08T11:08:52;49648.78;;;-134.68
12409;BMP180;6268;48.188;17.134;2023-03-08T11:11:22;49648.78;;;-134.68
12409;BMP180;6268;48.188;17.134;2023-03-08T11:13:52;49650.72;;;-134.68
12409;BMP180;6268;48.188;17.134;2023-03-08T11:16:47;49644.88;;;-134.68
12409;BMP180;6268;48.188;17.134;2023-03-08T11:19:52;49650.72;;;-134.68
12409;BMP180;6268;48.188;17.134;2023-03-08T11:23:04;49650.72;;;-134.68
12409;BMP180;6268;48.188;17.134;2023-03-08T11:25:45;49650.72;;;-134.68
12409;BMP180;6268;48.188;17.134;2023-03-08T11:28:41;49648.78;;;-134.68
12409;BMP180;6268;48.188;17.134;2023-03-08T11:31:20;49650.72;;;-134.68
12409;BMP180;6268;48.188;17.134;2023-03-08T11:34:14;49646.84;;;-134.68
12409;BMP180;6268;48.188;17.134;2023-03-08T11:37:01;49646.84;;;-134.68
12409;BMP180;6268;48.188;17.134;2023-03-08T11:39:38;49650.72;;;-134.68
12409;BMP180;6268;48.188;17.134;2023-03-08T11:42:23;49650.72;;;-134.68
12409;BMP180;6268;48.188;17.134;2023-03-08T11:45:11;49646.84;;;-134.68
12409;BMP180;6268;48.188;17.134;2023-03-08T11:48:22;49648.78;;;-134.68
12409;BMP180;6268;48.188;17.134;2023-03-08T11:50:58;49648.78;;;-134.68
12409;BMP180;6268;48.188;17.134;2023-03-08T11:53:48;49648.78;;;-134.68
12409;BMP180;6268;48.188;17.134;2023-03-08T11:56:49;49646.84;;;-134.68
12409;BMP180;6268;48.188;17.134;2023-03-08T11:59:29;49646.84;;;-134.68
12409;BMP180;6268;48.188;17.134;2023-03-08T12:02:03;49648.78;;;-134.68
12409;BMP180;6268;48.188;17.134;2023-03-08T12:04:46;49644.88;;;-134.68
12409;BMP180;6268;48.188;17.134;2023-03-08T12:07:26;49646.84;;;-134.68
12409;BMP180;6268;48.188;17.134;2023-03-08T12:10:03;49648.78;;;-134.68
12409;BMP180;6268;48.188;17.134;2023-03-08T12:12:39;49648.78;;;-134.68
12409;BMP180;6268;48.188;17.134;2023-03-08T12:15:25;49646.84;;;-134.68
12409;BMP180;6268;48.188;17.134;2023-03-08T12:18:01;49646.84;;;-134.68
12409;BMP180;6268;48.188;17.134;2023-03-08T12:20:39;49648.78;;;-134.68
12409;BMP180;6268;48.188;17.134;2023-03-08T12:23:23;49646.84;;;-134.68
12409;BMP180;6268;48.188;17.134;2023-03-08T12:26:13;49650.72;;;-134.68
12409;BMP180;6268;48.188;17.134;2023-03-08T12:28:50;49648.78;;;-134.68
12409;BMP180;6268;48.188;17.134;2023-03-08T12:31:26;49650.72;;;-134.68
12409;BMP180;6268;48.188;17.134;2023-03-08T12:33:58;49644.88;;;-134.68
12409;BMP180;6268;48.188;17.134;2023-03-08T12:36:39;49646.84;;;-134.68
12409;BMP180;6268;48.188;17.134;2023-03-08T12:39:26;49650.72;;;-134.68
12409;BMP180;6268;48.188;17.134;2023-03-08T12:42:12;49648.78;;;-134.68
12409;BMP180;6268;48.188;17.134;2023-03-08T12:44:42;49648.78;;;-134.68
12409;BMP180;6268;48.188;17.134;2023-03-08T12:47:21;49648.78;;;-134.68
12409;BMP180;6268;48.188;17.134;2023-03-08T12:49:53;49646.84;;;-134.68
12409;BMP180;6268;48.188;17.134;2023-03-08T12:52:30;49646.84;;;-134.68
12409;BMP180;6268;48.188;17.134;2023-03-08T12:55:03;49646.84;;;-134.68
12409;BMP180;6268;48.188;17.134;2023-03-08T12:57:45;49646.84;;;-134.68
12409;BMP180;6268;48.188;17.134;2023-03-08T13:00:28;49646.84;;;-134.68
12409;BMP180;6268;48.188;17.134;2023-03-08T13:03:01;49648.78;;;-134.68
12409;BMP180;6268;48.188;17.134;2023-03-08T13:05:34;49646.84;;;-134.68
12409;BMP180;6268;48.188;17.134;2023-03-08T13:08:22;49646.84;;;-134.68
12409;BMP180;6268;48.188;17.134;2023-03-08T13:11:05;49646.84;;;-134.68
12409;BMP180;6268;48.188;17.134;2023-03-08T13:13:50;49646.84;;;-134.68
12409;BMP180;6268;48.188;17.134;2023-03-08T13:16:33;49646.84;;;-134.68
12409;BMP180;6268;48.188;17.134;2023-03-08T13:19:17;49646.84;;;-134.68
12409;BMP180;6268;48.188;17.134;2023-03-08T13:21:56;49646.84;;;-134.68
12409;BMP180;6268;48.188;17.134;2023-03-08T13:24:38;49644.88;;;-134.68
12409;BMP180;6268;48.188;17.134;2023-03-08T13:27:31;49646.84;;;-134.68
12409;BMP180;6268;48.188;17.134;2023-03-08T13:30:21;49642.94;;;-134.68
12409;BMP180;6268;48.188;17.134;2023-03-08T13:32:51;49648.78;;;-134.68
12409;BMP180;6268;48.188;17.134;2023-03-08T13:35:22;49642.94;;;-134.68
12409;BMP180;6268;48.188;17.134;2023-03-08T13:37:53;49644.88;;;-134.68
12409;BMP180;6268;48.188;17.134;2023-03-08T13:40:23;49646.84;;;-134.68
12409;BMP180;6268;48.188;17.134;2023-03-08T13:42:54;49648.78;;;-134.68
12409;BMP180;6268;48.188;17.134;2023-03-08T13:45:25;49644.88;;;-134.68
12409;BMP180;6268;48.188;17.134;2023-03-08T13:47:57;49644.88;;;-134.68
12409;BMP180;6268;48.188;17.134;2023-03-08T13:50:31;49648.78;;;-134.68
12409;BMP180;6268;48.188;17.134;2023-03-08T13:53:03;49648.78;;;-134.68
12409;BMP180;6268;48.188;17.134;2023-03-08T13:55:40;49646.84;;;-134.68
12409;BMP180;6268;48.188;17.134;2023-03-08T13:58:30;49646.84;;;-134.68
12409;BMP180;6268;48.188;17.134;2023-03-08T14:01:10;49646.84;;;-134.68
12409;BMP180;6268;48.188;17.134;2023-03-08T14:03:40;49646.84;;;-134.68
12409;BMP180;6268;48.188;17.134;2023-03-08T14:06:18;49644.88;;;-134.68
12409;BMP180;6268;48.188;17.134;2023-03-08T14:08:49;49642.94;;;-134.68
12409;BMP180;6268;48.188;17.134;2023-03-08T14:11:23;49646.84;;;-134.68
12409;BMP180;6268;48.188;17.134;2023-03-08T14:13:56;49646.84;;;-134.68
12409;BMP180;6268;48.188;17.134;2023-03-08T14:16:31;49646.84;;;-134.68
12409;BMP180;6268;48.188;17.134;2023-03-08T14:19:10;49648.78;;;-134.68
12409;BMP180;6268;48.188;17.134;2023-03-08T14:21:48;49646.84;;;-134.68